sensor_id;sensor_type;location;lat;lon;timestamp;pressure;altitude;pressure_sealevel;temperature;humidity
48652;BME280;34442;52.362;-1.302;2023-04-20T00:01:26;101245.97;;;6.92;100.00
48652;BME280;34442;52.362;-1.302;2023-04-20T00:03:52;101248.59;;;6.84;100.00
48652;BME280;34442;52.362;-1.302;2023-04-20T00:06:17;101239.53;;;6.77;100.00
48652;BME280;34442;52.362;-1.302;2023-04-20T00:08:45;101234.34;;;6.67;100.00
48652;BME280;34442;52.362;-1.302;2023-04-20T00:11:11;101241.19;;;6.69;100.00
48652;BME280;34442;52.362;-1.302;2023-04-20T00:13:39;101236.19;;;6.75;100.00
48652;BME280;34442;52.362;-1.302;2023-04-20T00:16:05;101238.75;;;6.84;100.00
48652;BME280;34442;52.362;-1.302;2023-04-20T00:18:33;101230.00;;;6.74;100.00
48652;BME280;34442;52.362;-1.302;2023-04-20T00:20:58;101232.38;;;6.77;100.00
48652;BME280;34442;52.362;-1.302;2023-04-20T00:23:24;101235.38;;;6.82;100.00
48652;BME280;34442;52.362;-1.302;2023-04-20T00:25:50;101241.19;;;6.69;100.00
48652;BME280;34442;52.362;-1.302;2023-04-20T00:28:16;101223.06;;;6.47;100.00
48652;BME280;34442;52.362;-1.302;2023-04-20T00:30:41;101218.44;;;6.65;100.00
48652;BME280;34442;52.362;-1.302;2023-04-20T00:33:07;101217.94;;;6.62;100.00
48652;BME280;34442;52.362;-1.302;2023-04-20T00:35:32;101221.31;;;6.72;100.00
48652;BME280;34442;52.362;-1.302;2023-04-20T00:37:58;101230.44;;;6.61;100.00
48652;BME280;34442;52.362;-1.302;2023-04-20T00:40:23;101217.78;;;6.63;100.00
48652;BME280;34442;52.362;-1.302;2023-04-20T00:42:49;101223.88;;;6.47;100.00
48652;BME280;34442;52.362;-1.302;2023-04-20T00:45:14;101222.75;;;6.58;100.00
48652;BME280;34442;52.362;-1.302;2023-04-20T00:47:39;101227.50;;;6.72;100.00
48652;BME280;34442;52.362;-1.302;2023-04-20T00:50:06;101223.94;;;6.56;100.00
48652;BME280;34442;52.362;-1.302;2023-04-20T00:52:31;101219.44;;;7.07;100.00
48652;BME280;34442;52.362;-1.302;2023-04-20T00:54:58;101210.97;;;6.69;100.00
48652;BME280;34442;52.362;-1.302;2023-04-20T00:57:24;101212.28;;;6.65;100.00
48652;BME280;34442;52.362;-1.302;2023-04-20T00:59:52;101212.44;;;6.63;100.00
48652;BME280;34442;52.362;-1.302;2023-04-20T01:02:18;101208.91;;;6.55;100.00
48652;BME280;34442;52.362;-1.302;2023-04-20T01:04:45;101203.88;;;6.52;100.00
48652;BME280;34442;52.362;-1.302;2023-04-20T01:07:11;101198.72;;;6.58;100.00
48652;BME280;34442;52.362;-1.302;2023-04-20T01:09:37;101196.91;;;6.59;100.00
48652;BME280;34442;52.362;-1.302;2023-04-20T01:12:09;101191.34;;;6.52;100.00
48652;BME280;34442;52.362;-1.302;2023-04-20T01:14:35;101192.00;;;6.54;100.00
48652;BME280;34442;52.362;-1.302;2023-04-20T01:17:01;101188.69;;;6.52;100.00
48652;BME280;34442;52.362;-1.302;2023-04-20T01:19:31;101187.84;;;6.52;100.00
48652;BME280;34442;52.362;-1.302;2023-04-20T01:21:56;101184.13;;;6.44;100.00
48652;BME280;34442;52.362;-1.302;2023-04-20T01:24:22;101177.78;;;6.45;100.00
48652;BME280;34442;52.362;-1.302;2023-04-20T01:26:47;101185.75;;;6.37;100.00
48652;BME280;34442;52.362;-1.302;2023-04-20T01:29:13;101176.94;;;6.45;100.00
48652;BME280;34442;52.362;-1.302;2023-04-20T01:31:38;101179.47;;;6.46;100.00
48652;BME280;34442;52.362;-1.302;2023-04-20T01:34:04;101174.63;;;6.42;100.00
48652;BME280;34442;52.362;-1.302;2023-04-20T01:36:29;101171.94;;;6.42;100.00
48652;BME280;34442;52.362;-1.302;2023-04-20T01:38:56;101174.94;;;6.39;100.00
48652;BME280;34442;52.362;-1.302;2023-04-20T01:41:22;101172.75;;;6.34;100.00
48652;BME280;34442;52.362;-1.302;2023-04-20T01:43:47;101180.19;;;6.22;100.00
48652;BME280;34442;52.362;-1.302;2023-04-20T01:46:12;101182.13;;;6.12;100.00
48652;BME280;34442;52.362;-1.302;2023-04-20T01:48:38;101175.47;;;6.16;100.00
48652;BME280;34442;52.362;-1.302;2023-04-20T01:51:03;101173.28;;;6.12;100.00
48652;BME280;34442;52.362;-1.302;2023-04-20T01:53:29;101173.91;;;6.06;100.00
48652;BME280;34442;52.362;-1.302;2023-04-20T01:55:54;101170.72;;;6.02;100.00
48652;BME280;34442;52.362;-1.302;2023-04-20T01:58:19;101166.53;;;6.00;100.00
48652;BME280;34442;52.362;-1.302;2023-04-20T02:00:45;101159.34;;;6.00;100.00
48652;BME280;34442;52.362;-1.302;2023-04-20T02:03:10;101165.22;;;6.04;100.00
48652;BME280;34442;52.362;-1.302;2023-04-20T02:05:35;101162.72;;;6.02;100.00
48652;BME280;34442;52.362;-1.302;2023-04-20T02:08:01;101167.38;;;6.00;100.00
48652;BME280;34442;52.362;-1.302;2023-04-20T02:10:26;101166.06;;;6.04;100.00
48652;BME280;34442;52.362;-1.302;2023-04-20T02:12:52;101167.09;;;6.11;100.00
48652;BME280;34442;52.362;-1.302;2023-04-20T02:15:17;101161.47;;;6.14;100.00
48652;BME280;34442;52.362;-1.302;2023-04-20T02:17:42;101174.94;;;6.13;100.00
48652;BME280;34442;52.362;-1.302;2023-04-20T02:20:09;101158.44;;;6.09;100.00
48652;BME280;34442;52.362;-1.302;2023-04-20T02:22:35;101155.03;;;5.99;100.00
48652;BME280;34442;52.362;-1.302;2023-04-20T02:25:01;101162.25;;;6.07;100.00
48652;BME280;34442;52.362;-1.302;2023-04-20T02:27:27;101160.25;;;6.09;100.00
48652;BME280;34442;52.362;-1.302;2023-04-20T02:29:52;101164.25;;;6.13;100.00
48652;BME280;34442;52.362;-1.302;2023-04-20T02:32:18;101164.16;;;6.22;100.00
48652;BME280;34442;52.362;-1.302;2023-04-20T02:34:44;101157.03;;;6.31;100.00
48652;BME280;34442;52.362;-1.302;2023-04-20T02:37:10;101162.16;;;6.25;100.00
48652;BME280;34442;52.362;-1.302;2023-04-20T02:39:35;101153.34;;;6.32;100.00
48652;BME280;34442;52.362;-1.302;2023-04-20T02:42:01;101151.88;;;6.30;100.00
48652;BME280;34442;52.362;-1.302;2023-04-20T02:44:27;101151.22;;;6.94;100.00
48652;BME280;34442;52.362;-1.302;2023-04-20T02:46:53;101143.09;;;7.04;100.00
48652;BME280;34442;52.362;-1.302;2023-04-20T02:49:18;101150.28;;;7.12;100.00
48652;BME280;34442;52.362;-1.302;2023-04-20T02:51:44;101152.47;;;7.16;100.00
48652;BME280;34442;52.362;-1.302;2023-04-20T02:54:09;101150.63;;;7.17;100.00
48652;BME280;34442;52.362;-1.302;2023-04-20T02:56:37;101146.81;;;6.69;100.00
48652;BME280;34442;52.362;-1.302;2023-04-20T02:59:03;101144.34;;;6.67;100.00
48652;BME280;34442;52.362;-1.302;2023-04-20T03:01:28;101146.56;;;6.38;100.00
48652;BME280;34442;52.362;-1.302;2023-04-20T03:03:54;101146.03;;;6.34;100.00
48652;BME280;34442;52.362;-1.302;2023-04-20T03:06:20;101147.81;;;6.17;100.00
48652;BME280;34442;52.362;-1.302;2023-04-20T03:08:45;101141.63;;;6.25;100.00
48652;BME280;34442;52.362;-1.302;2023-04-20T03:11:11;101146.00;;;6.26;100.00
48652;BME280;34442;52.362;-1.302;2023-04-20T03:13:36;101144.69;;;6.30;100.00
48652;BME280;34442;52.362;-1.302;2023-04-20T03:16:02;101145.16;;;6.26;100.00
48652;BME280;34442;52.362;-1.302;2023-04-20T03:18:29;101145.13;;;6.17;100.00
48652;BME280;34442;52.362;-1.302;2023-04-20T03:20:54;101140.09;;;6.14;100.00
48652;BME280;34442;52.362;-1.302;2023-04-20T03:23:19;101138.94;;;6.17;100.00
48652;BME280;34442;52.362;-1.302;2023-04-20T03:25:45;101144.25;;;6.17;100.00
48652;BME280;34442;52.362;-1.302;2023-04-20T03:28:10;101150.13;;;6.20;100.00
48652;BME280;34442;52.362;-1.302;2023-04-20T03:30:36;101146.94;;;6.17;100.00
48652;BME280;34442;52.362;-1.302;2023-04-20T03:33:01;101160.16;;;6.18;100.00
48652;BME280;34442;52.362;-1.302;2023-04-20T03:35:27;101150.25;;;6.11;100.00
48652;BME280;34442;52.362;-1.302;2023-04-20T03:37:52;101146.44;;;6.13;100.00
48652;BME280;34442;52.362;-1.302;2023-04-20T03:40:17;101139.75;;;6.09;100.00
48652;BME280;34442;52.362;-1.302;2023-04-20T03:42:43;101151.22;;;6.02;100.00
48652;BME280;34442;52.362;-1.302;2023-04-20T03:45:09;101144.69;;;6.04;100.00
48652;BME280;34442;52.362;-1.302;2023-04-20T03:47:34;101143.03;;;6.03;100.00
48652;BME280;34442;52.362;-1.302;2023-04-20T03:50:00;101150.16;;;5.94;100.00
48652;BME280;34442;52.362;-1.302;2023-04-20T03:52:25;101152.66;;;5.96;100.00
48652;BME280;34442;52.362;-1.302;2023-04-20T03:54:51;101156.16;;;5.96;100.00
48652;BME280;34442;52.362;-1.302;2023-04-20T03:57:16;101149.16;;;5.95;100.00
48652;BME280;34442;52.362;-1.302;2023-04-20T03:59:42;101152.34;;;5.99;100.00
48652;BME280;34442;52.362;-1.302;2023-04-20T04:02:07;101162.41;;;5.87;100.00
48652;BME280;34442;52.362;-1.302;2023-04-20T04:04:35;101157.84;;;5.80;100.00
48652;BME280;34442;52.362;-1.302;2023-04-20T04:07:00;101160.38;;;5.81;100.00
48652;BME280;34442;52.362;-1.302;2023-04-20T04:09:26;101144.13;;;5.92;100.00
48652;BME280;34442;52.362;-1.302;2023-04-20T04:11:51;101148.75;;;5.90;100.00
48652;BME280;34442;52.362;-1.302;2023-04-20T04:14:17;101148.94;;;5.89;100.00
48652;BME280;34442;52.362;-1.302;2023-04-20T04:16:42;101149.25;;;5.86;100.00
48652;BME280;34442;52.362;-1.302;2023-04-20T04:19:08;101150.06;;;5.86;100.00
48652;BME280;34442;52.362;-1.302;2023-04-20T04:21:33;101147.25;;;5.88;100.00
48652;BME280;34442;52.362;-1.302;2023-04-20T04:23:59;101149.66;;;5.73;100.00
48652;BME280;34442;52.362;-1.302;2023-04-20T04:26:24;101155.19;;;5.80;100.00
48652;BME280;34442;52.362;-1.302;2023-04-20T04:28:51;101155.72;;;5.83;100.00
48652;BME280;34442;52.362;-1.302;2023-04-20T04:31:16;101153.03;;;5.83;100.00
48652;BME280;34442;52.362;-1.302;2023-04-20T04:33:44;101157.06;;;5.87;100.00
48652;BME280;34442;52.362;-1.302;2023-04-20T04:36:11;101163.19;;;5.80;100.00
48652;BME280;34442;52.362;-1.302;2023-04-20T04:38:36;101159.91;;;5.86;100.00
48652;BME280;34442;52.362;-1.302;2023-04-20T04:41:02;101161.75;;;5.85;100.00
48652;BME280;34442;52.362;-1.302;2023-04-20T04:43:28;101167.09;;;5.85;100.00
48652;BME280;34442;52.362;-1.302;2023-04-20T04:45:54;101165.56;;;5.83;100.00
48652;BME280;34442;52.362;-1.302;2023-04-20T04:48:22;101162.78;;;5.66;100.00
48652;BME280;34442;52.362;-1.302;2023-04-20T04:50:48;101168.94;;;5.67;100.00
48652;BME280;34442;52.362;-1.302;2023-04-20T04:53:13;101168.09;;;5.66;100.00
48652;BME280;34442;52.362;-1.302;2023-04-20T04:55:39;101164.97;;;5.71;100.00
48652;BME280;34442;52.362;-1.302;2023-04-20T04:58:07;101155.00;;;5.73;100.00
48652;BME280;34442;52.362;-1.302;2023-04-20T05:00:32;101173.19;;;5.78;100.00
48652;BME280;34442;52.362;-1.302;2023-04-20T05:02:58;101180.00;;;5.72;100.00
48652;BME280;34442;52.362;-1.302;2023-04-20T05:05:23;101179.47;;;5.68;100.00
48652;BME280;34442;52.362;-1.302;2023-04-20T05:07:50;101177.56;;;5.61;100.00
48652;BME280;34442;52.362;-1.302;2023-04-20T05:10:15;101176.16;;;5.75;100.00
48652;BME280;34442;52.362;-1.302;2023-04-20T05:12:41;101179.06;;;5.81;100.00
48652;BME280;34442;52.362;-1.302;2023-04-20T05:15:07;101182.28;;;5.67;100.00
48652;BME280;34442;52.362;-1.302;2023-04-20T05:17:32;101175.44;;;5.46;100.00
48652;BME280;34442;52.362;-1.302;2023-04-20T05:19:58;101194.19;;;5.37;100.00
48652;BME280;34442;52.362;-1.302;2023-04-20T05:22:23;101191.81;;;5.34;100.00
48652;BME280;34442;52.362;-1.302;2023-04-20T05:24:49;101191.06;;;5.23;100.00
48652;BME280;34442;52.362;-1.302;2023-04-20T05:27:14;101188.25;;;5.25;100.00
48652;BME280;34442;52.362;-1.302;2023-04-20T05:29:40;101189.53;;;5.21;100.00
48652;BME280;34442;52.362;-1.302;2023-04-20T05:32:05;101192.19;;;5.21;100.00
48652;BME280;34442;52.362;-1.302;2023-04-20T05:34:31;101191.06;;;5.23;100.00
48652;BME280;34442;52.362;-1.302;2023-04-20T05:36:57;101196.16;;;5.35;100.00
48652;BME280;34442;52.362;-1.302;2023-04-20T05:39:23;101197.16;;;5.34;100.00
48652;BME280;34442;52.362;-1.302;2023-04-20T05:41:49;101195.09;;;5.45;100.00
48652;BME280;34442;52.362;-1.302;2023-04-20T05:44:14;101193.78;;;5.67;100.00
48652;BME280;34442;52.362;-1.302;2023-04-20T05:46:40;101200.25;;;5.83;100.00
48652;BME280;34442;52.362;-1.302;2023-04-20T05:49:05;101187.53;;;5.94;100.00
48652;BME280;34442;52.362;-1.302;2023-04-20T05:51:31;101202.22;;;5.99;100.00
48652;BME280;34442;52.362;-1.302;2023-04-20T05:53:59;101196.94;;;6.07;100.00
48652;BME280;34442;52.362;-1.302;2023-04-20T05:56:25;101200.28;;;6.09;100.00
48652;BME280;34442;52.362;-1.302;2023-04-20T05:58:51;101196.81;;;6.16;100.00
48652;BME280;34442;52.362;-1.302;2023-04-20T06:01:17;101199.06;;;6.29;100.00
48652;BME280;34442;52.362;-1.302;2023-04-20T06:03:42;101194.25;;;6.33;100.00
48652;BME280;34442;52.362;-1.302;2023-04-20T06:06:08;101199.97;;;6.38;100.00
48652;BME280;34442;52.362;-1.302;2023-04-20T06:08:33;101191.00;;;6.47;100.00
48652;BME280;34442;52.362;-1.302;2023-04-20T06:10:59;101197.88;;;6.58;100.00
48652;BME280;34442;52.362;-1.302;2023-04-20T06:13:24;101192.91;;;6.63;100.00
48652;BME280;34442;52.362;-1.302;2023-04-20T06:15:50;101197.41;;;6.70;100.00
48652;BME280;34442;52.362;-1.302;2023-04-20T06:18:17;101200.28;;;6.77;100.00
48652;BME280;34442;52.362;-1.302;2023-04-20T06:20:45;101195.13;;;6.76;100.00
48652;BME280;34442;52.362;-1.302;2023-04-20T06:23:11;101196.94;;;7.50;100.00
48652;BME280;34442;52.362;-1.302;2023-04-20T06:25:37;101193.78;;;7.79;100.00
48652;BME280;34442;52.362;-1.302;2023-04-20T06:28:03;101192.56;;;7.90;100.00
48652;BME280;34442;52.362;-1.302;2023-04-20T06:30:29;101188.22;;;7.97;100.00
48652;BME280;34442;52.362;-1.302;2023-04-20T06:32:55;101194.28;;;7.50;100.00
48652;BME280;34442;52.362;-1.302;2023-04-20T06:35:20;101180.38;;;7.46;100.00
48652;BME280;34442;52.362;-1.302;2023-04-20T06:37:48;101192.25;;;7.44;100.00
48652;BME280;34442;52.362;-1.302;2023-04-20T06:40:13;101189.44;;;7.62;100.00
48652;BME280;34442;52.362;-1.302;2023-04-20T06:42:41;101179.97;;;8.31;100.00
48652;BME280;34442;52.362;-1.302;2023-04-20T06:45:07;101192.13;;;8.58;100.00
48652;BME280;34442;52.362;-1.302;2023-04-20T06:47:33;101188.19;;;8.77;100.00
48652;BME280;34442;52.362;-1.302;2023-04-20T06:49:59;101188.84;;;8.79;100.00
48652;BME280;34442;52.362;-1.302;2023-04-20T06:52:26;101191.63;;;8.94;100.00
48652;BME280;34442;52.362;-1.302;2023-04-20T06:54:52;101186.03;;;9.04;100.00
48652;BME280;34442;52.362;-1.302;2023-04-20T06:57:18;101185.31;;;8.48;100.00
48652;BME280;34442;52.362;-1.302;2023-04-20T06:59:44;101186.00;;;8.25;100.00
48652;BME280;34442;52.362;-1.302;2023-04-20T07:02:09;101179.13;;;8.23;100.00
48652;BME280;34442;52.362;-1.302;2023-04-20T07:04:35;101174.78;;;8.21;100.00
48652;BME280;34442;52.362;-1.302;2023-04-20T07:07:00;101183.63;;;8.30;100.00
48652;BME280;34442;52.362;-1.302;2023-04-20T07:09:26;101182.28;;;8.42;100.00
48652;BME280;34442;52.362;-1.302;2023-04-20T07:11:51;101182.41;;;8.57;100.00
48652;BME280;34442;52.362;-1.302;2023-04-20T07:14:17;101184.91;;;8.59;100.00
48652;BME280;34442;52.362;-1.302;2023-04-20T07:16:42;101193.09;;;8.65;100.00
48652;BME280;34442;52.362;-1.302;2023-04-20T07:19:07;101188.97;;;8.86;100.00
48652;BME280;34442;52.362;-1.302;2023-04-20T07:21:33;101181.72;;;8.94;100.00
48652;BME280;34442;52.362;-1.302;2023-04-20T07:23:59;101185.19;;;9.03;100.00
48652;BME280;34442;52.362;-1.302;2023-04-20T07:26:25;101186.56;;;8.99;100.00
48652;BME280;34442;52.362;-1.302;2023-04-20T07:28:50;101183.00;;;9.07;100.00
48652;BME280;34442;52.362;-1.302;2023-04-20T07:31:16;101189.78;;;9.17;100.00
48652;BME280;34442;52.362;-1.302;2023-04-20T07:33:42;101189.28;;;9.83;100.00
48652;BME280;34442;52.362;-1.302;2023-04-20T07:36:08;101189.16;;;10.14;100.00
48652;BME280;34442;52.362;-1.302;2023-04-20T07:38:34;101176.63;;;10.29;100.00
48652;BME280;34442;52.362;-1.302;2023-04-20T07:41:00;101166.78;;;10.51;100.00
48652;BME280;34442;52.362;-1.302;2023-04-20T07:43:25;101166.41;;;10.54;100.00
48652;BME280;34442;52.362;-1.302;2023-04-20T07:45:51;101172.53;;;10.63;100.00
48652;BME280;34442;52.362;-1.302;2023-04-20T07:48:16;101169.84;;;10.48;100.00
48652;BME280;34442;52.362;-1.302;2023-04-20T07:50:42;101169.47;;;10.66;100.00
48652;BME280;34442;52.362;-1.302;2023-04-20T07:53:08;101163.34;;;10.93;99.90
48652;BME280;34442;52.362;-1.302;2023-04-20T07:55:33;101168.84;;;10.85;99.21
48652;BME280;34442;52.362;-1.302;2023-04-20T07:57:59;101166.38;;;10.69;99.32
48652;BME280;34442;52.362;-1.302;2023-04-20T08:00:27;101166.50;;;10.97;98.56
48652;BME280;34442;52.362;-1.302;2023-04-20T08:02:53;101157.16;;;10.93;98.49
48652;BME280;34442;52.362;-1.302;2023-04-20T08:05:18;101156.72;;;11.11;97.29
48652;BME280;34442;52.362;-1.302;2023-04-20T08:07:44;101148.78;;;11.03;97.39
48652;BME280;34442;52.362;-1.302;2023-04-20T08:10:10;101158.16;;;11.28;96.42
48652;BME280;34442;52.362;-1.302;2023-04-20T08:12:35;101160.97;;;11.20;94.89
48652;BME280;34442;52.362;-1.302;2023-04-20T08:15:01;101149.13;;;11.36;93.64
48652;BME280;34442;52.362;-1.302;2023-04-20T08:17:29;101150.69;;;11.09;94.45
48652;BME280;34442;52.362;-1.302;2023-04-20T08:19:55;101152.19;;;11.11;94.69
48652;BME280;34442;52.362;-1.302;2023-04-20T08:22:20;101148.72;;;11.39;93.20
48652;BME280;34442;52.362;-1.302;2023-04-20T08:24:45;101155.72;;;11.33;92.49
48652;BME280;34442;52.362;-1.302;2023-04-20T08:27:11;101150.41;;;11.68;90.46
48652;BME280;34442;52.362;-1.302;2023-04-20T08:29:38;101157.69;;;11.46;89.67
48652;BME280;34442;52.362;-1.302;2023-04-20T08:32:03;101146.56;;;11.77;89.78
48652;BME280;34442;52.362;-1.302;2023-04-20T08:34:29;101149.16;;;11.85;89.13
48652;BME280;34442;52.362;-1.302;2023-04-20T08:36:54;101144.50;;;11.79;87.32
48652;BME280;34442;52.362;-1.302;2023-04-20T08:39:20;101145.69;;;11.70;83.90
48652;BME280;34442;52.362;-1.302;2023-04-20T08:41:49;101134.25;;;11.68;85.80
48652;BME280;34442;52.362;-1.302;2023-04-20T08:44:18;101135.91;;;11.90;85.41
48652;BME280;34442;52.362;-1.302;2023-04-20T08:46:46;101140.13;;;12.34;83.72
48652;BME280;34442;52.362;-1.302;2023-04-20T08:49:14;101135.09;;;12.25;78.92
48652;BME280;34442;52.362;-1.302;2023-04-20T08:51:40;101143.81;;;12.27;81.79
48652;BME280;34442;52.362;-1.302;2023-04-20T08:54:06;101146.19;;;12.08;79.12
48652;BME280;34442;52.362;-1.302;2023-04-20T08:56:36;101138.63;;;12.25;78.40
48652;BME280;34442;52.362;-1.302;2023-04-20T08:59:02;101127.66;;;12.33;77.42
48652;BME280;34442;52.362;-1.302;2023-04-20T09:01:31;101127.88;;;12.32;78.68
48652;BME280;34442;52.362;-1.302;2023-04-20T09:04:00;101129.34;;;12.34;72.88
48652;BME280;34442;52.362;-1.302;2023-04-20T09:06:26;101129.66;;;11.83;81.34
48652;BME280;34442;52.362;-1.302;2023-04-20T09:08:53;101136.38;;;11.73;82.00
48652;BME280;34442;52.362;-1.302;2023-04-20T09:11:27;101125.16;;;11.97;76.72
48652;BME280;34442;52.362;-1.302;2023-04-20T09:14:09;101117.56;;;12.07;72.56
48652;BME280;34442;52.362;-1.302;2023-04-20T09:16:37;101115.16;;;12.19;77.42
48652;BME280;34442;52.362;-1.302;2023-04-20T09:19:04;101115.56;;;12.16;73.75
48652;BME280;34442;52.362;-1.302;2023-04-20T09:21:29;101111.16;;;12.50;73.91
48652;BME280;34442;52.362;-1.302;2023-04-20T09:24:01;101111.25;;;12.28;76.09
48652;BME280;34442;52.362;-1.302;2023-04-20T09:26:30;101115.34;;;12.17;76.01
48652;BME280;34442;52.362;-1.302;2023-04-20T09:28:57;101106.25;;;12.19;72.08
48652;BME280;34442;52.362;-1.302;2023-04-20T09:31:22;101106.72;;;11.94;67.31
48652;BME280;34442;52.362;-1.302;2023-04-20T09:34:00;101099.00;;;12.19;68.15
48652;BME280;34442;52.362;-1.302;2023-04-20T09:36:40;101100.69;;;12.33;62.02
48652;BME280;34442;52.362;-1.302;2023-04-20T09:39:13;101113.63;;;12.45;64.50
48652;BME280;34442;52.362;-1.302;2023-04-20T09:41:41;101106.22;;;12.60;69.91
48652;BME280;34442;52.362;-1.302;2023-04-20T09:44:07;101102.56;;;12.81;68.13
48652;BME280;34442;52.362;-1.302;2023-04-20T09:46:38;101105.69;;;12.84;61.83
48652;BME280;34442;52.362;-1.302;2023-04-20T09:49:05;101091.63;;;13.09;63.19
48652;BME280;34442;52.362;-1.302;2023-04-20T09:51:33;101101.63;;;13.28;65.56
48652;BME280;34442;52.362;-1.302;2023-04-20T09:54:01;101090.22;;;13.46;65.79
48652;BME280;34442;52.362;-1.302;2023-04-20T09:56:28;101077.50;;;13.53;66.73
48652;BME280;34442;52.362;-1.302;2023-04-20T09:58:55;101082.53;;;13.50;65.79
48652;BME280;34442;52.362;-1.302;2023-04-20T10:01:21;101071.69;;;13.36;66.61
48652;BME280;34442;52.362;-1.302;2023-04-20T10:03:47;101076.28;;;13.43;66.76
48652;BME280;34442;52.362;-1.302;2023-04-20T10:08:50;101076.06;;;13.51;62.25
48652;BME280;34442;52.362;-1.302;2023-04-20T10:11:36;101075.84;;;13.65;53.80
48652;BME280;34442;52.362;-1.302;2023-04-20T10:14:22;101060.03;;;13.76;52.94
48652;BME280;34442;52.362;-1.302;2023-04-20T10:17:07;101061.53;;;14.30;50.52
48652;BME280;34442;52.362;-1.302;2023-04-20T10:19:43;101040.97;;;14.29;51.50
48652;BME280;34442;52.362;-1.302;2023-04-20T10:22:11;101053.38;;;14.43;56.18
48652;BME280;34442;52.362;-1.302;2023-04-20T10:24:37;101044.59;;;14.54;57.26
48652;BME280;34442;52.362;-1.302;2023-04-20T10:27:04;101043.78;;;14.54;57.99
48652;BME280;34442;52.362;-1.302;2023-04-20T10:29:39;101045.00;;;14.58;55.73
48652;BME280;34442;52.362;-1.302;2023-04-20T10:32:05;101036.28;;;14.87;57.08
48652;BME280;34442;52.362;-1.302;2023-04-20T10:34:34;101039.41;;;14.84;50.34
48652;BME280;34442;52.362;-1.302;2023-04-20T10:37:10;101023.84;;;15.05;44.23
48652;BME280;34442;52.362;-1.302;2023-04-20T10:39:44;101034.25;;;15.08;45.70
48652;BME280;34442;52.362;-1.302;2023-04-20T10:42:09;101032.25;;;14.97;54.27
48652;BME280;34442;52.362;-1.302;2023-04-20T10:44:35;101031.66;;;14.95;55.42
48652;BME280;34442;52.362;-1.302;2023-04-20T10:47:00;101032.25;;;15.22;54.92
48652;BME280;34442;52.362;-1.302;2023-04-20T10:49:27;101015.97;;;15.03;52.13
48652;BME280;34442;52.362;-1.302;2023-04-20T10:51:54;101017.47;;;15.24;54.42
48652;BME280;34442;52.362;-1.302;2023-04-20T10:54:20;101011.06;;;14.94;53.83
48652;BME280;34442;52.362;-1.302;2023-04-20T10:56:47;101011.91;;;14.87;54.83
48652;BME280;34442;52.362;-1.302;2023-04-20T10:59:15;100991.31;;;14.86;51.86
48652;BME280;34442;52.362;-1.302;2023-04-20T11:01:42;101010.94;;;15.07;48.64
48652;BME280;34442;52.362;-1.302;2023-04-20T11:04:08;100989.66;;;14.85;54.68
48652;BME280;34442;52.362;-1.302;2023-04-20T11:06:38;101005.63;;;14.94;52.07
48652;BME280;34442;52.362;-1.302;2023-04-20T11:09:20;100983.34;;;15.17;48.11
48652;BME280;34442;52.362;-1.302;2023-04-20T11:12:06;100985.28;;;15.09;46.77
48652;BME280;34442;52.362;-1.302;2023-04-20T11:14:36;100993.38;;;15.34;50.99
48652;BME280;34442;52.362;-1.302;2023-04-20T11:17:03;100980.53;;;15.05;50.27
48652;BME280;34442;52.362;-1.302;2023-04-20T11:19:35;100991.09;;;15.13;44.90
48652;BME280;34442;52.362;-1.302;2023-04-20T11:22:02;100984.44;;;14.84;50.05
48652;BME280;34442;52.362;-1.302;2023-04-20T11:24:31;100968.31;;;14.96;51.32
48652;BME280;34442;52.362;-1.302;2023-04-20T11:27:02;100975.31;;;15.28;51.20
48652;BME280;34442;52.362;-1.302;2023-04-20T11:29:36;100954.00;;;15.57;45.30
48652;BME280;34442;52.362;-1.302;2023-04-20T11:32:05;100973.09;;;15.44;49.61
48652;BME280;34442;52.362;-1.302;2023-04-20T11:34:35;100958.44;;;15.51;49.42
48652;BME280;34442;52.362;-1.302;2023-04-20T11:37:08;100956.31;;;15.53;46.33
48652;BME280;34442;52.362;-1.302;2023-04-20T11:39:37;100982.09;;;15.19;48.94
48652;BME280;34442;52.362;-1.302;2023-04-20T11:42:03;100944.41;;;15.36;50.86
48652;BME280;34442;52.362;-1.302;2023-04-20T11:44:28;100938.66;;;15.26;50.13
48652;BME280;34442;52.362;-1.302;2023-04-20T11:46:55;100949.00;;;15.35;48.08
48652;BME280;34442;52.362;-1.302;2023-04-20T11:49:25;100944.91;;;15.26;50.68
48652;BME280;34442;52.362;-1.302;2023-04-20T11:51:51;100937.47;;;15.22;48.75
48652;BME280;34442;52.362;-1.302;2023-04-20T11:54:16;100947.09;;;15.18;48.05
48652;BME280;34442;52.362;-1.302;2023-04-20T11:56:46;100919.72;;;15.26;49.26
48652;BME280;34442;52.362;-1.302;2023-04-20T11:59:12;100933.38;;;15.12;46.54
48652;BME280;34442;52.362;-1.302;2023-04-20T12:01:44;100921.53;;;14.88;48.23
48652;BME280;34442;52.362;-1.302;2023-04-20T12:04:10;100905.22;;;14.95;48.42
48652;BME280;34442;52.362;-1.302;2023-04-20T12:06:35;100912.59;;;15.31;46.28
48652;BME280;34442;52.362;-1.302;2023-04-20T12:09:00;100929.97;;;15.42;48.49
48652;BME280;34442;52.362;-1.302;2023-04-20T12:11:26;100905.03;;;15.33;48.08
48652;BME280;34442;52.362;-1.302;2023-04-20T12:13:52;100916.78;;;15.27;49.17
48652;BME280;34442;52.362;-1.302;2023-04-20T12:16:20;100904.81;;;15.17;47.16
48652;BME280;34442;52.362;-1.302;2023-04-20T12:18:46;100897.06;;;15.38;48.52
48652;BME280;34442;52.362;-1.302;2023-04-20T12:21:11;100890.16;;;15.61;47.79
48652;BME280;34442;52.362;-1.302;2023-04-20T12:23:37;100884.44;;;15.69;46.99
48652;BME280;34442;52.362;-1.302;2023-04-20T12:26:04;100894.81;;;15.35;48.33
48652;BME280;34442;52.362;-1.302;2023-04-20T12:28:31;100897.16;;;15.32;46.50
48652;BME280;34442;52.362;-1.302;2023-04-20T12:30:56;100894.44;;;15.32;48.15
48652;BME280;34442;52.362;-1.302;2023-04-20T12:33:22;100892.84;;;15.43;47.18
48652;BME280;34442;52.362;-1.302;2023-04-20T12:35:47;100889.47;;;15.29;43.75
48652;BME280;34442;52.362;-1.302;2023-04-20T12:38:12;100896.53;;;15.30;43.65
48652;BME280;34442;52.362;-1.302;2023-04-20T12:40:41;100892.47;;;15.57;45.07